Time;durP1;ratioP1;P1;durP2;ratioP2;P2;SDS_P1;SDS_P2;PMS_P1;PMS_P2;Temp;Humidity;BMP_temperature;BMP_pressure;BME280_temperature;BME280_humidity;BME280_pressure;Samples;Min_cycle;Max_cycle;Signal;HPM_P1;HPM_P2
2022/07/12 00:00:11;;;;;;;8.65;2.80;;;14.20;67.50;;;;;;5012629;28;20208;-45
2022/07/12 00:02:41;;;;;;;6.50;2.40;;;14.20;67.60;;;;;;5012805;28;20221;-46
2022/07/12 00:05:12;;;;;;;8.85;2.80;;;14.20;67.50;;;;;;5012513;28;20196;-47
2022/07/12 00:07:43;;;;;;;6.28;2.60;;;14.20;67.50;;;;;;5012745;28;20568;-47
2022/07/12 00:10:14;;;;;;;9.43;3.33;;;14.20;67.50;;;;;;5012495;28;20247;-46
2022/07/12 00:12:44;;;;;;;6.55;2.72;;;14.20;67.50;;;;;;5006690;28;20229;-46
2022/07/12 00:15:17;;;;;;;6.03;2.35;;;14.20;67.50;;;;;;5012020;28;20649;-47
2022/07/12 00:17:48;;;;;;;9.30;2.53;;;14.20;67.50;;;;;;4998529;28;20263;-48
2022/07/12 00:20:19;;;;;;;10.60;3.47;;;14.20;67.50;;;;;;4992996;28;20209;-48
2022/07/12 00:22:50;;;;;;;9.50;3.20;;;14.20;67.40;;;;;;4989210;28;20230;-47
2022/07/12 00:25:20;;;;;;;8.60;3.00;;;14.20;67.50;;;;;;4982924;28;20197;-48
2022/07/12 00:27:51;;;;;;;8.27;3.05;;;14.20;67.60;;;;;;4990807;28;20720;-49
2022/07/12 00:30:24;;;;;;;9.30;3.38;;;14.20;67.60;;;;;;4992336;28;20838;-49
2022/07/12 00:32:55;;;;;;;10.10;3.92;;;14.30;67.60;;;;;;4992345;28;20220;-49
2022/07/12 00:35:26;;;;;;;8.73;2.80;;;14.20;67.60;;;;;;4991418;28;20713;-48
2022/07/12 00:37:57;;;;;;;11.57;3.20;;;14.30;67.60;;;;;;4992023;28;20236;-47
2022/07/12 00:40:27;;;;;;;9.32;3.03;;;14.30;68.50;;;;;;4991678;28;20193;-47
2022/07/12 00:42:58;;;;;;;9.13;2.97;;;14.20;67.70;;;;;;4991844;28;20607;-48
2022/07/12 00:45:31;;;;;;;7.25;2.95;;;14.30;67.70;;;;;;4991582;28;20197;-45
2022/07/12 00:48:01;;;;;;;7.28;2.88;;;14.30;67.70;;;;;;5003373;28;20228;-46
2022/07/12 00:50:32;;;;;;;8.48;3.10;;;14.30;67.50;;;;;;4999384;28;20201;-47
2022/07/12 00:53:03;;;;;;;11.60;3.25;;;14.30;67.50;;;;;;4991732;28;20272;-46
2022/07/12 00:55:34;;;;;;;7.63;3.28;;;14.30;67.50;;;;;;4991923;28;20189;-46
2022/07/12 00:58:04;;;;;;;9.88;3.42;;;14.30;67.50;;;;;;4990106;28;20198;-47
2022/07/12 01:00:37;;;;;;;11.20;3.60;;;14.30;67.50;;;;;;4991797;28;20208;-46
2022/07/12 01:03:08;;;;;;;9.48;3.75;;;14.30;67.60;;;;;;4991758;28;20215;-47
2022/07/12 01:05:39;;;;;;;9.70;4.07;;;14.30;67.60;;;;;;5002422;28;20204;-48
2022/07/12 01:08:10;;;;;;;12.90;4.30;;;14.30;67.50;;;;;;5010642;28;20239;-47
2022/07/12 01:10:42;;;;;;;10.90;5.03;;;14.30;67.50;;;;;;4999032;28;20206;-46
2022/07/12 01:13:13;;;;;;;10.60;4.03;;;14.30;67.60;;;;;;4987752;28;20221;-47
2022/07/12 01:15:46;;;;;;;10.85;4.65;;;14.30;67.70;;;;;;4990406;28;20197;-46
2022/07/12 01:18:18;;;;;;;10.43;4.45;;;14.30;67.70;;;;;;5005689;28;20204;-48
2022/07/12 01:20:49;;;;;;;13.10;4.72;;;14.30;67.50;;;;;;4995345;28;20571;-49
2022/07/12 01:23:21;;;;;;;9.80;4.55;;;14.40;67.60;;;;;;4991386;28;20221;-49
2022/07/12 01:25:52;;;;;;;10.48;4.40;;;14.30;67.50;;;;;;5003513;28;20196;-49
2022/07/12 01:28:23;;;;;;;8.98;3.90;;;14.40;67.50;;;;;;5011499;28;20271;-47
2022/07/12 01:30:54;;;;;;;11.88;5.00;;;14.40;67.60;;;;;;4997658;28;20205;-49
2022/07/12 01:33:27;;;;;;;14.60;4.43;;;14.40;67.60;;;;;;4991332;28;20221;-49
2022/07/12 01:35:57;;;;;;;10.80;4.60;;;14.40;67.70;;;;;;4990563;28;20198;-51
2022/07/12 01:38:30;;;;;;;11.35;4.90;;;14.40;67.60;;;;;;4991160;28;20202;-48
2022/07/12 01:41:01;;;;;;;11.43;4.28;;;14.40;67.70;;;;;;4998093;28;20642;-47
2022/07/12 01:43:32;;;;;;;12.85;4.97;;;14.30;67.60;;;;;;4991392;28;20221;-47
2022/07/12 01:46:02;;;;;;;11.27;4.72;;;14.40;67.80;;;;;;5003997;28;20649;-47
2022/07/12 01:48:33;;;;;;;9.65;4.47;;;14.30;67.70;;;;;;5010766;28;20233;-48
2022/07/12 01:51:04;;;;;;;11.55;4.60;;;14.40;67.70;;;;;;4998016;28;20189;-51
2022/07/12 01:53:38;;;;;;;11.75;4.22;;;14.40;67.70;;;;;;4991526;28;20588;-49
2022/07/12 01:56:09;;;;;;;8.07;3.70;;;14.40;67.70;;;;;;5004252;28;20777;-48
2022/07/12 01:58:40;;;;;;;7.95;4.03;;;14.30;67.50;;;;;;5010475;28;20197;-49
2022/07/12 02:01:12;;;;;;;10.02;4.13;;;14.40;67.60;;;;;;5010295;28;20205;-48
2022/07/12 02:03:43;;;;;;;8.27;3.88;;;14.40;67.50;;;;;;5010821;28;20586;-48
2022/07/12 02:06:14;;;;;;;9.57;4.70;;;14.40;67.50;;;;;;5010999;28;20197;-47
2022/07/12 02:08:47;;;;;;;10.55;4.00;;;14.40;67.60;;;;;;5010683;28;20213;-49
2022/07/12 02:11:18;;;;;;;7.38;3.75;;;14.40;67.60;;;;;;5010567;28;20200;-49
2022/07/12 02:13:48;;;;;;;11.05;4.40;;;14.40;67.60;;;;;;5010465;28;20219;-47
2022/07/12 02:16:19;;;;;;;8.90;4.25;;;14.40;67.60;;;;;;5010554;28;20197;-45
2022/07/12 02:18:50;;;;;;;9.15;3.80;;;14.40;67.70;;;;;;4990303;28;20202;-47
2022/07/12 02:21:20;;;;;;;10.27;4.25;;;14.40;67.70;;;;;;4990521;28;20638;-48
2022/07/12 02:23:56;;;;;;;10.68;4.30;;;14.40;67.70;;;;;;4991183;28;20236;-47
2022/07/12 02:26:27;;;;;;;7.80;4.35;;;14.40;67.70;;;;;;4991396;28;20275;-46
2022/07/12 02:28:58;;;;;;;9.95;4.32;;;14.40;67.70;;;;;;4995304;28;20198;-48
2022/07/12 02:31:29;;;;;;;8.80;3.70;;;14.40;67.60;;;;;;4994174;28;20193;-48
2022/07/12 02:33:59;;;;;;;9.98;3.95;;;14.40;67.60;;;;;;4994685;28;20213;-47
2022/07/12 02:36:30;;;;;;;7.72;3.70;;;14.40;67.50;;;;;;4993870;28;20248;-46
2022/07/12 02:39:04;;;;;;;10.40;4.55;;;14.50;67.70;;;;;;4990165;28;20579;-46
2022/07/12 02:41:35;;;;;;;8.38;3.67;;;14.50;67.70;;;;;;4994123;28;20654;-46
2022/07/12 02:44:06;;;;;;;9.27;4.63;;;14.50;67.80;;;;;;4993895;28;20222;-46
2022/07/12 02:46:37;;;;;;;11.63;4.35;;;14.50;67.90;;;;;;4994483;28;20201;-47
2022/07/12 02:49:07;;;;;;;9.80;3.95;;;14.50;67.80;;;;;;5014191;28;20278;-50
2022/07/12 02:51:38;;;;;;;8.85;3.33;;;14.50;67.80;;;;;;5000579;28;20194;-48
2022/07/12 02:54:11;;;;;;;9.13;3.53;;;14.50;67.90;;;;;;4993631;28;20225;-48
2022/07/12 02:56:41;;;;;;;10.52;4.13;;;14.50;67.80;;;;;;5008530;28;20193;-46
2022/07/12 02:59:12;;;;;;;8.75;3.53;;;14.50;67.70;;;;;;5013594;28;20197;-48
2022/07/12 03:01:43;;;;;;;8.48;3.38;;;14.50;67.70;;;;;;5013912;28;20201;-48
2022/07/12 03:04:13;;;;;;;8.07;3.60;;;14.50;67.60;;;;;;5013555;28;20228;-49
2022/07/12 03:06:44;;;;;;;9.95;4.15;;;14.50;67.70;;;;;;5012562;28;20200;-47
2022/07/12 03:09:17;;;;;;;9.07;4.30;;;14.50;67.60;;;;;;5012948;28;20212;-49
2022/07/12 03:11:47;;;;;;;10.00;4.03;;;14.50;67.70;;;;;;5012937;28;20217;-46
2022/07/12 03:14:18;;;;;;;10.60;4.20;;;14.50;67.70;;;;;;5013057;28;20238;-47
2022/07/12 03:16:49;;;;;;;7.72;3.97;;;14.50;67.80;;;;;;5003812;28;20661;-48
2022/07/12 03:19:20;;;;;;;8.45;3.63;;;14.50;67.90;;;;;;4992685;28;20213;-48
2022/07/12 03:21:50;;;;;;;7.15;3.45;;;14.50;67.90;;;;;;4993629;28;20204;-48
2022/07/12 03:24:23;;;;;;;7.95;3.63;;;14.50;67.90;;;;;;4994261;28;20205;-47
2022/07/12 03:26:53;;;;;;;9.52;4.18;;;14.50;67.90;;;;;;4994199;28;20194;-47
2022/07/12 03:29:24;;;;;;;6.88;3.85;;;14.50;67.80;;;;;;4993245;28;20213;-49
2022/07/12 03:31:55;;;;;;;7.63;3.83;;;14.50;67.80;;;;;;4993148;28;20198;-47
2022/07/12 03:34:25;;;;;;;6.80;3.97;;;14.50;67.70;;;;;;4994183;28;20680;-47
2022/07/12 03:36:56;;;;;;;8.63;4.10;;;14.50;67.60;;;;;;4993778;28;20209;-49
2022/07/12 03:39:29;;;;;;;10.00;4.53;;;14.50;67.70;;;;;;4993387;28;20209;-48
2022/07/12 03:42:00;;;;;;;8.48;3.95;;;14.50;67.60;;;;;;4994086;28;20185;-49
2022/07/12 03:44:31;;;;;;;7.78;3.47;;;14.50;67.60;;;;;;4993239;28;20209;-46
2022/07/12 03:47:01;;;;;;;7.20;3.80;;;14.50;67.70;;;;;;4997098;28;20232;-48
2022/07/12 03:49:32;;;;;;;6.55;3.80;;;14.50;67.80;;;;;;4996081;28;20202;-48
2022/07/12 03:52:03;;;;;;;9.40;4.20;;;14.60;68.00;;;;;;4993475;28;20194;-48
2022/07/12 03:54:36;;;;;;;6.63;3.90;;;14.60;67.90;;;;;;4992250;28;20202;-46
2022/07/12 03:57:16;;;;;;;8.25;4.25;;;14.60;68.00;;;;;;5004586;28;20645;-46
2022/07/12 03:59:48;;;;;;;5.47;3.45;;;14.50;68.00;;;;;;5012744;28;20201;-49
2022/07/12 04:02:19;;;;;;;6.10;4.03;;;14.60;67.80;;;;;;4996487;28;20224;-46
2022/07/12 04:04:49;;;;;;;7.03;4.15;;;14.60;67.70;;;;;;4993023;28;20206;-49
2022/07/12 04:07:21;;;;;;;6.38;3.72;;;14.60;67.70;;;;;;4991731;28;20665;-48
2022/07/12 04:09:53;;;;;;;7.28;3.85;;;14.60;67.60;;;;;;4992289;28;20583;-50
2022/07/12 04:12:24;;;;;;;8.80;3.83;;;14.60;67.70;;;;;;4990978;28;20220;-45
2022/07/12 04:14:55;;;;;;;7.63;4.28;;;14.60;67.60;;;;;;4992762;28;20205;-50
2022/07/12 04:17:26;;;;;;;6.32;3.85;;;14.60;67.70;;;;;;4999905;28;20404;-49
2022/07/12 04:19:56;;;;;;;6.38;3.90;;;14.60;67.80;;;;;;5003200;28;20198;-53
2022/07/12 04:22:27;;;;;;;7.28;4.25;;;14.60;67.80;;;;;;4992112;28;20708;-49
2022/07/12 04:24:59;;;;;;;5.30;3.75;;;14.60;67.80;;;;;;4992438;28;20216;-52
2022/07/12 04:27:30;;;;;;;6.38;4.18;;;14.60;67.80;;;;;;4992947;28;20634;-50
2022/07/12 04:30:01;;;;;;;7.05;3.75;;;14.60;67.80;;;;;;4992612;28;20204;-49
2022/07/12 04:32:32;;;;;;;5.25;3.00;;;14.60;67.80;;;;;;4991890;28;20685;-48
2022/07/12 04:35:02;;;;;;;5.65;3.90;;;14.60;67.70;;;;;;4990997;28;20220;-48
2022/07/12 04:37:33;;;;;;;7.88;4.22;;;14.60;67.60;;;;;;4989599;28;20197;-48
2022/07/12 04:40:06;;;;;;;6.47;4.25;;;14.60;67.60;;;;;;4991715;28;20205;-50
2022/07/12 04:42:36;;;;;;;6.35;3.80;;;14.70;67.60;;;;;;4992325;28;20214;-49
2022/07/12 04:45:08;;;;;;;5.45;3.63;;;14.60;67.50;;;;;;4991615;28;20194;-50
2022/07/12 04:47:40;;;;;;;6.22;3.97;;;14.60;67.50;;;;;;5000863;28;20232;-50
2022/07/12 04:50:11;;;;;;;5.47;3.80;;;14.60;67.50;;;;;;5011582;28;20204;-49
2022/07/12 04:52:42;;;;;;;7.30;4.05;;;14.60;67.50;;;;;;4995275;28;20213;-47
2022/07/12 04:55:14;;;;;;;8.52;4.15;;;14.70;67.70;;;;;;4992054;28;20201;-48
2022/07/12 04:57:45;;;;;;;4.53;3.28;;;14.60;67.70;;;;;;5007315;28;20568;-51
2022/07/12 05:00:16;;;;;;;5.35;3.45;;;14.70;67.70;;;;;;5011625;28;20570;-50
2022/07/12 05:02:47;;;;;;;7.53;4.05;;;14.70;67.70;;;;;;5011119;28;20574;-49
2022/07/12 05:05:18;;;;;;;6.00;3.80;;;14.70;67.70;;;;;;4996408;28;20549;-50
2022/07/12 05:07:48;;;;;;;5.90;3.78;;;14.70;67.60;;;;;;5007756;28;20221;-50
2022/07/12 05:10:21;;;;;;;4.43;3.40;;;14.60;67.60;;;;;;5011820;28;20667;-49
2022/07/12 05:12:52;;;;;;;5.72;3.30;;;14.70;67.50;;;;;;5010780;28;20271;-51
2022/07/12 05:15:23;;;;;;;4.75;3.30;;;14.70;68.00;;;;;;5010868;28;20204;-50
2022/07/12 05:17:53;;;;;;;6.20;3.83;;;14.70;67.50;;;;;;5011422;28;20216;-50
2022/07/12 05:20:24;;;;;;;4.65;3.50;;;14.70;67.50;;;;;;4998656;28;20197;-49
2022/07/12 05:22:55;;;;;;;4.93;3.10;;;14.70;67.50;;;;;;4991794;28;20214;-47
2022/07/12 05:25:27;;;;;;;8.38;3.78;;;14.70;67.50;;;;;;4990468;28;20606;-46
2022/07/12 05:27:59;;;;;;;9.75;5.20;;;14.70;67.50;;;;;;4988591;28;20209;-47
2022/07/12 05:30:29;;;;;;;13.75;5.32;;;14.70;67.50;;;;;;5001225;28;20204;-47
2022/07/12 05:33:00;;;;;;;8.27;4.50;;;14.80;67.70;;;;;;4994077;28;20213;-48
2022/07/12 05:35:31;;;;;;;10.48;5.20;;;14.80;67.80;;;;;;4991085;28;20197;-48
2022/07/12 05:38:02;;;;;;;9.38;4.32;;;14.80;68.10;;;;;;5007237;28;20201;-47
2022/07/12 05:40:35;;;;;;;12.02;5.65;;;14.80;68.30;;;;;;5011470;28;20554;-47
2022/07/12 05:43:06;;;;;;;12.10;4.82;;;14.80;68.70;;;;;;5010454;28;20216;-47
2022/07/12 05:45:36;;;;;;;9.60;4.35;;;14.80;68.90;;;;;;5010667;28;20197;-48
2022/07/12 05:48:08;;;;;;;10.20;4.97;;;14.80;69.00;;;;;;5009972;28;20590;-47
2022/07/12 05:50:39;;;;;;;8.20;4.53;;;14.80;68.80;;;;;;5011357;28;20208;-46
2022/07/12 05:53:23;;;;;;;12.43;4.40;;;14.80;68.70;;;;;;5009921;28;20217;-47
2022/07/12 05:55:56;;;;;;;7.32;4.72;;;14.80;69.50;;;;;;5010846;28;20208;-48
2022/07/12 05:58:27;;;;;;;7.53;4.35;;;14.80;68.70;;;;;;5000653;28;20194;-46
2022/07/12 06:00:58;;;;;;;8.43;4.00;;;14.80;68.70;;;;;;4991125;28;20654;-47
2022/07/12 06:03:28;;;;;;;10.68;4.53;;;14.80;68.60;;;;;;4994853;28;20217;-47
2022/07/12 06:05:59;;;;;;;7.80;3.70;;;14.80;68.60;;;;;;4994948;28;20563;-47
2022/07/12 06:08:30;;;;;;;9.07;4.30;;;14.80;68.60;;;;;;4994978;28;20225;-48
2022/07/12 06:11:02;;;;;;;9.77;4.25;;;14.80;68.60;;;;;;4995270;28;20280;-47
2022/07/12 06:13:33;;;;;;;5.55;3.75;;;14.80;68.60;;;;;;4995143;28;20225;-46
2022/07/12 06:16:05;;;;;;;7.18;3.92;;;14.80;68.50;;;;;;4994868;28;20202;-47
2022/07/12 06:18:38;;;;;;;6.32;3.72;;;14.80;68.40;;;;;;5011611;28;20289;-46
2022/07/12 06:21:09;;;;;;;6.68;3.92;;;14.80;68.30;;;;;;4995381;28;20693;-45
2022/07/12 06:23:39;;;;;;;6.15;4.10;;;14.80;68.20;;;;;;4993748;28;20225;-46
2022/07/12 06:26:12;;;;;;;6.90;3.97;;;14.70;68.10;;;;;;4991828;28;20190;-46
2022/07/12 06:28:43;;;;;;;6.75;3.58;;;14.80;68.20;;;;;;5014561;28;20220;-45
2022/07/12 06:31:13;;;;;;;6.13;3.53;;;14.70;68.10;;;;;;5014302;28;20204;-47
2022/07/12 06:33:44;;;;;;;6.00;3.63;;;14.70;68.10;;;;;;5014463;28;20220;-46
2022/07/12 06:36:15;;;;;;;6.45;3.70;;;14.70;68.10;;;;;;5014027;28;20205;-46
2022/07/12 06:38:45;;;;;;;5.47;3.67;;;14.70;68.10;;;;;;5013757;28;20197;-47
2022/07/12 06:41:18;;;;;;;5.78;3.42;;;14.70;68.10;;;;;;5014087;28;20631;-46
2022/07/12 06:43:49;;;;;;;6.63;3.15;;;14.70;68.10;;;;;;5013155;28;20880;-46
2022/07/12 06:46:20;;;;;;;4.03;3.20;;;14.70;68.00;;;;;;5000265;28;20190;-47
2022/07/12 06:48:50;;;;;;;4.90;3.03;;;14.70;67.90;;;;;;5012562;28;20228;-46
2022/07/12 06:51:21;;;;;;;4.43;2.97;;;14.60;67.80;;;;;;5003252;28;20193;-46
2022/07/12 06:53:52;;;;;;;6.90;3.50;;;14.60;67.90;;;;;;4994291;28;20221;-48
2022/07/12 06:56:24;;;;;;;6.53;3.42;;;14.70;68.00;;;;;;4993913;28;20201;-46
2022/07/12 06:58:55;;;;;;;4.80;3.22;;;14.70;68.00;;;;;;4993579;28;20198;-47
2022/07/12 07:01:25;;;;;;;5.47;2.75;;;14.70;67.90;;;;;;4994514;28;20201;-46
2022/07/12 07:03:56;;;;;;;4.70;2.92;;;14.60;67.80;;;;;;4993826;28;20213;-47
2022/07/12 07:06:27;;;;;;;4.18;2.60;;;14.60;67.90;;;;;;4994330;28;20700;-46
2022/07/12 07:08:58;;;;;;;4.47;2.53;;;14.60;68.00;;;;;;4994622;28;20217;-45
2022/07/12 11:30:05;;;;;;;3.08;2.40;;;12.10;72.50;;;;;;5094068;27;20499;-59
2022/07/12 11:32:39;;;;;;;3.45;2.42;;;13.10;71.60;;;;;;5086961;28;20668;-60
2022/07/12 11:35:22;;;;;;;3.85;2.70;;;13.30;70.90;;;;;;5087009;28;20193;-56
2022/07/12 11:37:55;;;;;;;4.15;2.60;;;13.40;70.10;;;;;;5087154;28;20229;-46
2022/07/12 11:40:30;;;;;;;3.30;2.17;;;13.50;69.70;;;;;;5086650;28;20217;-53
2022/07/12 11:43:02;;;;;;;3.70;2.88;;;13.60;69.20;;;;;;5086743;28;20693;-50
2022/07/12 11:45:36;;;;;;;3.50;2.20;;;13.60;68.90;;;;;;5087039;28;20197;-53
2022/07/12 11:48:07;;;;;;;3.92;2.42;;;13.60;68.70;;;;;;5087062;28;20187;-53
2022/07/12 11:50:38;;;;;;;4.32;2.30;;;13.60;68.40;;;;;;5086662;28;20222;-51
2022/07/12 11:53:17;;;;;;;4.63;2.53;;;13.70;68.30;;;;;;5085566;28;20198;-48
2022/07/12 11:55:49;;;;;;;3.72;2.90;;;13.70;68.10;;;;;;5086542;28;20194;-53
2022/07/12 11:58:20;;;;;;;4.28;2.28;;;13.70;68.00;;;;;;5086483;28;20229;-55
2022/07/12 12:00:53;;;;;;;3.90;2.58;;;13.70;67.80;;;;;;5086721;28;20198;-59
2022/07/12 12:03:24;;;;;;;4.32;2.80;;;13.70;67.60;;;;;;5086465;28;20664;-56
2022/07/12 12:05:56;;;;;;;3.58;2.50;;;13.80;68.40;;;;;;5086295;28;20645;-50
2022/07/12 12:08:27;;;;;;;4.25;2.42;;;13.80;67.50;;;;;;5086340;28;20198;-51
2022/07/12 12:10:59;;;;;;;3.85;2.47;;;13.70;67.40;;;;;;5086646;28;20222;-58
2022/07/12 12:13:30;;;;;;;4.15;2.20;;;13.70;67.30;;;;;;5086404;28;20194;-51
2022/07/12 12:16:05;;;;;;;3.58;2.60;;;13.80;67.20;;;;;;5086431;28;20225;-53
2022/07/12 12:18:36;;;;;;;3.78;2.70;;;13.80;67.20;;;;;;5087026;28;20692;-58
2022/07/12 12:21:09;;;;;;;2.97;2.50;;;13.80;67.10;;;;;;5086076;28;20201;-49
2022/07/12 12:23:41;;;;;;;3.10;2.20;;;13.80;67.00;;;;;;5086464;28;20198;-46
2022/07/12 12:26:20;;;;;;;3.00;2.35;;;13.80;66.90;;;;;;5086352;28;20195;-60
2022/07/12 12:28:52;;;;;;;3.92;2.70;;;13.80;66.80;;;;;;5083778;28;20748;-49
2022/07/12 12:31:26;;;;;;;3.08;2.13;;;13.90;66.90;;;;;;5072590;28;20191;-48
2022/07/12 12:33:58;;;;;;;3.80;2.58;;;13.80;66.70;;;;;;5072718;28;20199;-51
2022/07/12 12:36:30;;;;;;;4.45;2.70;;;13.80;66.60;;;;;;5072325;28;20195;-49
2022/07/12 12:39:02;;;;;;;3.97;2.55;;;13.90;66.70;;;;;;5072231;28;20229;-49
2022/07/12 12:41:41;;;;;;;4.55;2.80;;;13.80;66.60;;;;;;5072036;28;20191;-51
2022/07/12 12:44:16;;;;;;;3.60;2.20;;;13.90;66.60;;;;;;5072049;28;20202;-55
2022/07/12 12:46:55;;;;;;;3.35;2.40;;;13.90;66.50;;;;;;5072205;28;20868;-57
2022/07/12 12:49:49;;;;;;;5.18;2.85;;;13.90;66.50;;;;;;5072015;28;20240;-57
2022/07/12 12:52:21;;;;;;;3.78;2.33;;;13.90;66.40;;;;;;5069119;28;20253;-52
2022/07/12 12:54:51;;;;;;;3.30;2.42;;;13.90;66.30;;;;;;5072057;28;20230;-59
2022/07/12 12:57:24;;;;;;;3.53;2.58;;;13.90;66.40;;;;;;5072024;28;20666;-52
2022/07/12 12:59:55;;;;;;;3.88;2.53;;;13.90;66.30;;;;;;5072184;28;20743;-45
2022/07/12 13:02:28;;;;;;;3.58;2.67;;;13.90;66.30;;;;;;5072045;28;20273;-53
2022/07/12 13:05:00;;;;;;;3.35;2.53;;;13.90;66.20;;;;;;5071483;28;20668;-57
2022/07/12 13:07:31;;;;;;;4.28;3.05;;;13.90;66.20;;;;;;5071923;28;20225;-60
2022/07/12 13:10:01;;;;;;;2.92;2.30;;;13.90;66.20;;;;;;5071787;28;20222;-60
2022/07/12 13:12:32;;;;;;;3.42;2.60;;;13.90;66.20;;;;;;5071887;28;20191;-59
2022/07/12 13:15:03;;;;;;;3.65;2.63;;;13.90;66.20;;;;;;5071978;28;20195;-53
2022/07/12 13:17:35;;;;;;;3.78;2.50;;;13.90;66.10;;;;;;5071867;28;20198;-50
2022/07/12 13:20:07;;;;;;;4.05;2.88;;;13.90;66.10;;;;;;5067564;23;20223;-59
2022/07/12 13:22:38;;;;;;;3.03;2.60;;;13.90;66.00;;;;;;5051391;28;20196;-47
2022/07/12 13:25:10;;;;;;;3.45;2.55;;;13.90;66.00;;;;;;5051825;28;20238;-58
2022/07/12 13:27:41;;;;;;;3.05;2.40;;;13.90;66.00;;;;;;5051196;28;20188;-57
2022/07/12 13:30:13;;;;;;;3.90;2.60;;;13.90;65.90;;;;;;5051637;28;20304;-52
2022/07/12 13:32:46;;;;;;;4.60;2.67;;;13.90;65.90;;;;;;5051200;28;20188;-53
2022/07/12 13:35:17;;;;;;;4.93;2.92;;;13.90;65.90;;;;;;5051124;28;20195;-60
2022/07/12 13:37:48;;;;;;;4.97;2.97;;;13.90;65.90;;;;;;5051418;28;20232;-54
2022/07/12 13:40:21;;;;;;;3.05;2.10;;;13.90;65.90;;;;;;5050767;28;20234;-53
2022/07/12 13:42:52;;;;;;;3.50;2.30;;;13.90;65.80;;;;;;5050807;28;20203;-54
2022/07/12 13:45:25;;;;;;;5.00;2.83;;;13.90;65.80;;;;;;5051359;28;20197;-55
2022/07/12 13:47:58;;;;;;;4.00;2.67;;;13.90;65.80;;;;;;5051086;28;20196;-54
2022/07/12 13:50:29;;;;;;;4.03;2.75;;;13.90;65.80;;;;;;5050967;28;20223;-52
2022/07/12 13:53:00;;;;;;;3.58;2.72;;;13.90;65.70;;;;;;5051349;28;20191;-51
2022/07/12 13:55:31;;;;;;;4.63;2.83;;;13.90;65.70;;;;;;5051339;28;20307;-59
2022/07/12 13:58:03;;;;;;;3.10;2.50;;;13.90;65.70;;;;;;5050890;28;20192;-48
2022/07/12 14:00:33;;;;;;;4.18;2.22;;;13.90;65.60;;;;;;5050724;28;20222;-55
2022/07/12 14:03:06;;;;;;;3.42;2.55;;;13.90;65.60;;;;;;5050654;28;20200;-58
2022/07/12 14:05:37;;;;;;;3.55;2.67;;;13.90;65.70;;;;;;5050185;28;20195;-52
2022/07/12 14:08:08;;;;;;;4.45;3.13;;;13.90;65.70;;;;;;5050735;28;20211;-59
2022/07/12 14:10:39;;;;;;;4.32;2.55;;;13.90;65.60;;;;;;5050711;28;20215;-48
2022/07/12 14:13:10;;;;;;;3.17;2.30;;;13.90;65.60;;;;;;5050778;28;20199;-53
2022/07/12 14:15:42;;;;;;;3.42;2.72;;;13.90;65.60;;;;;;5050674;28;20203;-56
2022/07/12 14:18:15;;;;;;;5.28;2.70;;;13.90;65.50;;;;;;5050613;28;21281;-53
2022/07/12 14:20:48;;;;;;;4.05;2.30;;;13.90;65.50;;;;;;5050702;28;20226;-57
2022/07/12 14:23:19;;;;;;;3.65;2.67;;;13.90;65.50;;;;;;5050601;28;20200;-44
2022/07/12 14:25:50;;;;;;;4.22;3.05;;;14.00;65.50;;;;;;5050857;28;20206;-54
2022/07/12 14:28:21;;;;;;;3.60;2.65;;;13.90;65.50;;;;;;5050442;28;20662;-48
2022/07/12 14:30:51;;;;;;;4.40;2.50;;;13.90;65.40;;;;;;5050549;28;20215;-55
2022/07/12 14:33:24;;;;;;;3.03;2.42;;;13.90;65.40;;;;;;5050399;28;20192;-56
2022/07/12 14:35:54;;;;;;;4.50;2.47;;;13.90;65.40;;;;;;5049929;28;20203;-47
2022/07/12 14:38:25;;;;;;;4.15;2.83;;;13.90;65.40;;;;;;5049834;28;20224;-43
2022/07/12 14:40:56;;;;;;;3.97;2.60;;;13.90;65.40;;;;;;5049725;28;20568;-44
2022/07/12 14:43:27;;;;;;;3.90;2.63;;;13.90;65.30;;;;;;5050001;28;20655;-51
2022/07/12 14:45:57;;;;;;;3.42;2.88;;;13.90;65.30;;;;;;5050110;28;20561;-52
2022/07/12 14:48:30;;;;;;;3.25;2.70;;;13.90;65.30;;;;;;5050004;28;20199;-48
2022/07/12 14:51:01;;;;;;;3.25;2.70;;;13.90;65.30;;;;;;5049565;28;20191;-46
2022/07/12 14:53:32;;;;;;;3.53;2.30;;;13.90;65.30;;;;;;5049692;28;20203;-44
2022/07/12 14:56:02;;;;;;;5.15;3.00;;;13.90;65.30;;;;;;5050421;28;20188;-54
2022/07/12 14:58:33;;;;;;;3.38;2.72;;;13.90;65.30;;;;;;5050154;28;20227;-44
2022/07/12 15:01:04;;;;;;;3.92;2.70;;;13.90;65.20;;;;;;5050331;28;20196;-51
2022/07/12 15:03:36;;;;;;;3.40;2.50;;;13.90;65.20;;;;;;5049984;28;20199;-57
2022/07/12 15:06:07;;;;;;;3.47;2.42;;;13.90;65.20;;;;;;5049594;28;20196;-49
2022/07/12 15:08:38;;;;;;;2.63;2.33;;;13.90;65.20;;;;;;5049967;28;20211;-44
2022/07/12 15:11:09;;;;;;;3.67;2.70;;;13.90;65.20;;;;;;5049457;28;20676;-45
2022/07/12 15:13:40;;;;;;;3.70;2.40;;;13.90;65.10;;;;;;5049386;28;20203;-52
2022/07/12 15:16:10;;;;;;;3.00;2.42;;;13.90;65.10;;;;;;5049557;28;20207;-44
2022/07/12 15:18:43;;;;;;;4.25;2.45;;;13.90;65.10;;;;;;5049996;28;20226;-48
2022/07/12 15:21:14;;;;;;;4.30;2.88;;;13.90;65.10;;;;;;5048983;28;20207;-43
2022/07/12 15:23:44;;;;;;;3.60;2.45;;;13.90;65.10;;;;;;5049452;28;20202;-47
2022/07/12 15:26:15;;;;;;;2.55;2.20;;;13.90;65.10;;;;;;5049538;28;20560;-41
2022/07/12 15:28:57;;;;;;;4.47;2.40;;;13.90;65.10;;;;;;5049463;28;20219;-49
2022/07/12 15:31:28;;;;;;;4.22;2.30;;;13.90;65.10;;;;;;5049718;28;20202;-47
2022/07/12 15:34:00;;;;;;;3.05;2.30;;;13.90;65.10;;;;;;5049531;28;20576;-45
2022/07/12 15:36:31;;;;;;;3.80;2.50;;;13.90;65.00;;;;;;5048937;28;20183;-47
2022/07/12 15:39:02;;;;;;;3.22;2.15;;;13.90;65.00;;;;;;5049289;28;20302;-44
2022/07/12 15:41:33;;;;;;;3.05;2.50;;;13.90;65.00;;;;;;5049624;28;20191;-52
2022/07/12 15:44:05;;;;;;;3.05;2.20;;;13.90;65.00;;;;;;5049348;28;20560;-46
2022/07/12 15:46:35;;;;;;;3.30;2.40;;;13.90;65.00;;;;;;5049052;28;20192;-45
2022/07/12 15:49:08;;;;;;;3.25;2.65;;;13.90;65.00;;;;;;5049206;28;20227;-51
2022/07/12 15:54:25;;;;;;;4.05;2.40;;;13.90;65.00;;;;;;5049548;28;20190;-56
2022/07/12 15:56:56;;;;;;;4.13;2.65;;;13.90;65.00;;;;;;5049574;28;20435;-46
2022/07/12 15:59:26;;;;;;;3.00;2.47;;;13.80;64.90;;;;;;5049323;28;20703;-49
2022/07/12 16:01:58;;;;;;;2.88;2.50;;;13.90;65.70;;;;;;5049227;28;20568;-48
2022/07/12 16:04:30;;;;;;;3.90;2.67;;;13.90;64.90;;;;;;5050139;28;20643;-50
2022/07/12 16:07:02;;;;;;;3.28;2.55;;;13.90;64.90;;;;;;5052759;28;20681;-50
2022/07/12 16:09:33;;;;;;;3.58;2.45;;;13.90;64.90;;;;;;5052930;28;20223;-44
2022/07/12 16:12:04;;;;;;;3.38;2.35;;;13.80;64.80;;;;;;5053036;28;20199;-48
2022/07/12 16:14:34;;;;;;;2.83;2.40;;;13.80;64.90;;;;;;5052568;28;20551;-51
2022/07/12 16:17:05;;;;;;;3.22;2.38;;;13.90;64.90;;;;;;5052718;28;20567;-48
2022/07/12 16:19:38;;;;;;;3.53;2.55;;;13.90;64.80;;;;;;5052688;28;20706;-47
2022/07/12 16:22:09;;;;;;;3.22;2.28;;;13.80;64.80;;;;;;5052051;28;20195;-58
2022/07/12 16:24:40;;;;;;;4.00;2.70;;;13.80;64.80;;;;;;5052576;28;20191;-51
2022/07/12 16:27:11;;;;;;;3.47;2.33;;;13.80;64.80;;;;;;5052776;28;20195;-59
2022/07/12 16:29:41;;;;;;;3.47;2.47;;;13.80;64.80;;;;;;5052835;28;20223;-49
2022/07/12 16:32:12;;;;;;;4.35;2.40;;;13.80;64.80;;;;;;5052712;28;20203;-54
2022/07/12 16:34:45;;;;;;;3.58;2.35;;;13.80;64.70;;;;;;5052608;28;20234;-54
2022/07/12 16:37:15;;;;;;;3.53;2.42;;;13.80;64.80;;;;;;5051842;28;20200;-50
2022/07/12 16:39:46;;;;;;;3.72;2.78;;;13.80;64.70;;;;;;5052067;28;20219;-44
2022/07/12 16:42:17;;;;;;;4.45;2.40;;;13.80;64.70;;;;;;5052428;28;20257;-53
2022/07/12 16:44:48;;;;;;;4.20;2.65;;;13.80;64.80;;;;;;5052417;28;20206;-46
2022/07/12 16:47:18;;;;;;;3.90;2.80;;;13.80;64.70;;;;;;5052297;28;20203;-51
2022/07/12 16:49:51;;;;;;;3.35;2.35;;;13.80;64.70;;;;;;5052259;28;20631;-53
2022/07/12 16:52:22;;;;;;;3.42;2.35;;;13.80;64.70;;;;;;5051806;28;20192;-54
2022/07/12 16:54:53;;;;;;;4.00;2.30;;;13.80;64.70;;;;;;5052134;28;20269;-45
2022/07/12 16:57:24;;;;;;;2.90;2.30;;;13.80;64.70;;;;;;5051631;28;20207;-55
2022/07/12 16:59:55;;;;;;;2.78;2.10;;;13.80;64.70;;;;;;5051749;28;20223;-50
2022/07/12 17:02:26;;;;;;;3.03;2.08;;;13.80;64.70;;;;;;5052369;28;20218;-56
2022/07/12 17:04:58;;;;;;;3.42;2.45;;;13.80;64.60;;;;;;5052096;28;20195;-48
2022/07/12 17:07:29;;;;;;;3.45;2.40;;;13.80;64.70;;;;;;5051602;28;20203;-49
2022/07/12 17:10:00;;;;;;;2.67;2.40;;;13.80;64.60;;;;;;5052069;28;20208;-52
2022/07/12 17:12:30;;;;;;;4.07;2.55;;;13.80;64.60;;;;;;5052249;28;20250;-48
2022/07/12 17:15:01;;;;;;;3.55;2.45;;;13.80;64.60;;;;;;5051804;28;20218;-49
2022/07/12 17:17:32;;;;;;;3.15;2.47;;;13.80;64.60;;;;;;5052007;28;20195;-45
2022/07/12 17:20:05;;;;;;;3.30;2.75;;;13.70;64.60;;;;;;5052028;28;20223;-49
2022/07/12 17:22:37;;;;;;;3.67;2.53;;;13.70;64.50;;;;;;5050021;28;20194;-56
2022/07/12 17:25:10;;;;;;;3.92;2.25;;;13.80;64.60;;;;;;5051119;28;20615;-56
2022/07/12 17:27:41;;;;;;;3.20;2.45;;;13.70;64.50;;;;;;5050683;28;20231;-57